Meteorología y climatología de Navarra
Datos de la estación - Meteo Navarra

Estación de Aralar GN

Altitud 1344 m.


Datos desde el 10/10/2019 hasta el 11/10/2019 en horario solar
Los datos son PROVISIONALES

Anterior Página 1 de 1 Siguiente Descargar: Formato para Excel 2000 o superior   Formato csv   Formato para OpenOffice Calc
Fecha Temperatura Humedad relativa Radiación global Insolación Precipitación Vel. viento 10 m Vel. viento 10 m Dir. viento 10 m
ºC % W/m² s l/m² m/s km/h º
10/10/2019 0:00 6.0 100 0.0 0 0.0 3.5 12.7 324
10/10/2019 0:10 6.0 100 0.0 0 0.0 2.8 10.2 317
10/10/2019 0:20 6.0 100 0.0 0 0.0 3.5 12.6 320
10/10/2019 0:30 6.0 100 0.0 0 0.0 3.9 14.0 320
10/10/2019 0:40 5.8 100 0.0 0 0.0 3.6 13.1 322
10/10/2019 0:50 5.6 100 0.0 0 0.0 3.3 11.8 323
10/10/2019 1:00 5.4 100 0.0 0 0.0 3.3 12.0 327
10/10/2019 1:10 5.3 100 0.0 0 0.0 3.7 13.1 330
10/10/2019 1:20 5.3 100 0.0 0 0.0 3.8 13.5 331
10/10/2019 1:30 5.4 100 0.0 0 0.0 3.1 11.3 330
10/10/2019 1:40 5.4 100 0.0 0 0.0 3.3 11.8 325
10/10/2019 1:50 5.4 100 0.0 0 0.0 3.5 12.5 324
10/10/2019 2:00 5.3 100 0.0 0 0.0 3.9 14.1 320
10/10/2019 2:10 5.3 100 0.0 0 0.0 3.8 13.6 322
10/10/2019 2:20 5.4 100 0.0 0 0.0 3.7 13.3 321
10/10/2019 2:30 5.5 99 0.0 0 0.0 3.8 13.6 320
10/10/2019 2:40 5.5 98 0.0 0 0.0 3.4 12.4 323
10/10/2019 2:50 5.6 97 0.0 0 0.0 3.4 12.3 321
10/10/2019 3:00 5.7 96 0.0 0 0.0 3.7 13.5 335
10/10/2019 3:10 5.8 97 0.0 0 0.0 3.0 10.8 335
10/10/2019 3:20 5.6 99 0.0 0 0.0 2.3 8.2 335
10/10/2019 3:30 5.6 100 0.0 0 0.0 2.3 8.4 330
10/10/2019 3:40 5.4 100 0.0 0 0.0 2.9 10.6 333
10/10/2019 3:50 5.4 100 0.0 0 0.0 2.7 9.8 328
10/10/2019 4:00 5.4 100 0.0 0 0.0 3.7 13.5 323
10/10/2019 4:10 5.5 100 0.0 0 0.0 3.0 10.8 333
10/10/2019 4:20 5.5 100 0.0 0 0.0 3.2 11.4 333
10/10/2019 4:30 5.3 100 0.0 0 0.0 3.6 12.9 335
10/10/2019 4:40 5.4 100 0.0 0 0.0 3.5 12.5 334
10/10/2019 4:50 5.2 100 0.0 0 0.0 3.6 13.1 337
10/10/2019 5:00 5.2 100 0.0 0 0.0 3.8 13.8 336
10/10/2019 5:10 5.2 100 0.0 0 0.0 4.4 16.0 338
10/10/2019 5:20 5.1 100 0.0 0 0.0 4.4 15.7 342
10/10/2019 5:30 5.1 100 0.0 0 0.0 4.6 16.4 338
10/10/2019 5:40 5.1 100 0.0 0 0.0 4.4 15.9 341
10/10/2019 5:50 5.2 100 0.0 0 0.0 4.1 14.7 340
10/10/2019 6:00 5.3 100 0.0 0 0.0 4.5 16.3 345
10/10/2019 6:10 5.2 100 0.0 0 0.0 4.5 16.3 348
10/10/2019 6:20 5.2 100 0.0 0 0.0 4.7 16.8 352
10/10/2019 6:30 5.3 100 15.1 0 0.0 4.8 17.4 359
10/10/2019 6:40 5.5 100 36.6 526 0.0 4.7 17.0 360
10/10/2019 6:50 5.7 100 58.0 600 0.0 4.4 15.9 360
10/10/2019 7:00 5.9 99 117.6 600 0.0 4.6 16.7 356
10/10/2019 7:10 6.0 97 182.1 594 0.0 4.6 16.6 359
10/10/2019 7:20 6.3 94 218.1 600 0.0 4.3 15.6 5
10/10/2019 7:30 6.7 92 202.0 600 0.0 4.5 16.3 357
10/10/2019 7:40 6.8 91 193.0 600 0.0 3.9 14.1 353
10/10/2019 7:50 7.1 89 216.5 600 0.0 4.1 14.7 355
10/10/2019 8:00 7.3 88 265.2 600 0.0 4.5 16.3 352
10/10/2019 8:10 7.4 86 311.6 600 0.0 3.9 14.1 352
10/10/2019 8:20 7.6 86 344.2 600 0.0 3.7 13.2 348
10/10/2019 8:30 7.8 85 370.8 600 0.0 2.8 10.2 356
10/10/2019 8:40 8.0 85 399.5 600 0.0 3.2 11.7 345
10/10/2019 8:50 8.1 84 427.4 600 0.0 3.4 12.1 341
10/10/2019 9:00 8.3 81 453.8 600 0.0 3.4 12.1 349
10/10/2019 9:10 8.2 81 478.8 600 0.0 3.8 13.8 346
10/10/2019 9:20 8.3 81 504.6 600 0.0 3.4 12.2 353
10/10/2019 9:30 8.5 80 530.8 600 0.4 3.6 13.1 355
10/10/2019 9:40 8.7 79 568.0 600 0.0 3.2 11.5 348
10/10/2019 9:50 8.7 80 591.0 600 0.0 3.1 11.1 359
10/10/2019 10:00 8.8 80 612.5 600 0.0 3.0 10.8 2
10/10/2019 10:10 9.4 79 631.5 600 0.0 2.9 10.3 359
10/10/2019 10:20 9.1 80 649.7 600 0.0 3.0 10.8 13
10/10/2019 10:30 8.9 80 664.0 600 0.0 3.1 11.2 347
10/10/2019 10:40 9.1 80 678.7 600 0.0 2.9 10.5 18
10/10/2019 10:50 9.2 82 713.8 600 0.0 2.5 9.0 16
10/10/2019 11:00 9.4 82 761.1 600 0.0 2.8 10.0 25
10/10/2019 11:10 9.6 82 754.9 600 0.0 1.9 6.8 10
10/10/2019 11:20 9.4 83 768.8 600 0.0 2.4 8.6 355
10/10/2019 11:30 9.3 84 572.2 482 0.0 2.5 8.9 15
10/10/2019 11:40 9.5 83 765.7 600 0.0 2.7 9.6 19
10/10/2019 11:50 9.6 84 457.2 320 0.0 2.2 8.0 15
10/10/2019 12:00 9.8 83 561.5 424 0.0 1.2 4.3 356
10/10/2019 12:10 9.6 84 538.8 386 0.0 1.9 6.7 358
10/10/2019 12:20 9.8 84 698.9 600 0.0 1.4 4.9 351
10/10/2019 12:30 10.0 83 624.0 548 0.0 1.7 5.9 5
10/10/2019 12:40 10.4 82 597.1 508 0.0 1.8 6.6 10
10/10/2019 12:50 10.4 83 695.1 600 0.0 1.7 6.2 4
10/10/2019 13:00 10.6 82 706.7 600 0.0 1.0 3.5 342
10/10/2019 13:10 10.7 82 682.0 600 0.0 1.3 4.7 21
10/10/2019 13:20 11.1 80 667.2 600 0.0 0.6 2.3 30
10/10/2019 13:30 11.9 76 653.6 600 0.0 2.0 7.3 155
10/10/2019 13:40 12.9 69 642.0 600 0.0 1.6 5.8 201
10/10/2019 13:50 11.9 76 618.8 600 0.0 1.0 3.5 39
10/10/2019 14:00 11.7 78 601.0 600 0.0 0.9 3.1 147
10/10/2019 14:10 12.9 68 581.3 600 0.0 2.5 9.0 198
10/10/2019 14:20 13.1 67 545.9 600 0.0 2.5 8.9 195
10/10/2019 14:30 12.7 70 511.9 600 0.0 2.1 7.7 174
10/10/2019 14:40 12.8 70 486.9 600 0.0 1.4 5.0 227
10/10/2019 14:50 12.1 73 460.4 600 0.0 1.0 3.5 218
10/10/2019 15:00 11.4 77 433.4 600 0.0 1.3 4.6 215
10/10/2019 15:10 11.1 81 405.9 600 0.0 0.7 2.6 303
10/10/2019 15:20 10.9 83 378.6 600 0.0 0.7 2.7 280
10/10/2019 15:30 11.2 81 350.1 600 0.0 0.8 2.8 265
10/10/2019 15:40 11.5 78 320.7 600 0.0 1.4 4.9 228
10/10/2019 15:50 12.3 74 290.8 600 0.0 2.5 8.9 191
10/10/2019 16:00 12.7 71 260.4 600 0.0 2.1 7.4 214
10/10/2019 16:10 12.7 71 228.6 600 0.0 3.2 11.6 209
10/10/2019 16:20 12.1 77 197.2 600 0.0 3.0 10.8 192
10/10/2019 16:30 11.7 75 165.9 600 0.0 3.0 10.7 195
10/10/2019 16:40 11.7 78 134.3 600 0.0 3.1 11.1 199
10/10/2019 16:50 11.9 74 104.5 600 0.0 3.1 11.0 205
10/10/2019 17:00 11.9 75 75.5 600 0.0 3.0 10.8 192
10/10/2019 17:10 11.6 76 48.9 600 0.0 3.5 12.7 194
10/10/2019 17:20 11.4 78 26.3 184 0.0 3.6 12.9 197
10/10/2019 17:30 11.2 81 1.7 0 0.0 3.5 12.5 199
10/10/2019 17:40 10.8 83 0.0 0 0.0 3.6 13.1 200
10/10/2019 17:50 10.4 85 0.0 0 0.0 3.3 11.9 206
10/10/2019 18:00 10.4 86 0.0 0 0.0 3.4 12.4 187
10/10/2019 18:10 10.4 86 0.0 0 0.0 5.3 19.2 183
10/10/2019 18:20 10.4 84 0.0 0 0.0 6.8 24.5 177
10/10/2019 18:30 10.5 81 0.0 0 0.0 7.0 25.3 175
10/10/2019 18:40 10.7 79 0.0 0 0.0 6.6 23.6 176
10/10/2019 18:50 10.9 77 0.0 0 0.0 6.4 23.0 175
10/10/2019 19:00 10.9 75 0.0 0 0.0 6.4 23.0 178
10/10/2019 19:10 11.0 74 0.0 0 0.0 6.0 21.5 175
10/10/2019 19:20 11.0 73 0.0 0 0.0 6.0 21.5 176
10/10/2019 19:30 11.1 70 0.0 0 0.0 5.7 20.6 179
10/10/2019 19:40 11.2 70 0.0 0 0.0 6.1 21.9 179
10/10/2019 19:50 11.3 69 0.0 0 0.0 6.2 22.5 180
10/10/2019 20:00 11.4 68 0.0 0 0.0 6.4 22.9 183
10/10/2019 20:10 11.1 70 0.0 0 0.0 6.4 22.9 180
10/10/2019 20:20 11.2 67 0.0 0 0.0 6.3 22.6 179
10/10/2019 20:30 11.5 64 0.0 0 0.0 6.6 23.7 180
10/10/2019 20:40 11.8 62 0.0 0 0.0 7.2 25.8 181
10/10/2019 20:50 12.1 60 0.0 0 0.0 7.4 26.7 184
10/10/2019 21:00 11.9 61 0.0 0 0.0 7.8 28.0 186
10/10/2019 21:10 12.0 60 0.0 0 0.0 7.7 27.5 180
10/10/2019 21:20 11.7 63 0.0 0 0.0 7.2 26.0 181
10/10/2019 21:30 11.5 64 0.0 0 0.0 7.5 26.9 178
10/10/2019 21:40 11.3 67 0.0 0 0.0 7.0 25.1 175
10/10/2019 21:50 10.8 70 0.0 0 0.0 7.4 26.6 174
10/10/2019 22:00 11.0 68 0.0 0 0.0 7.2 26.0 172
10/10/2019 22:10 11.0 65 0.0 0 0.0 8.2 29.7 170
10/10/2019 22:20 10.8 65 0.0 0 0.0 8.0 28.8 170
10/10/2019 22:30 10.5 68 0.0 0 0.0 8.1 29.2 169
10/10/2019 22:40 10.4 68 0.0 0 0.0 7.0 25.1 165
10/10/2019 22:50 10.1 70 0.0 0 0.0 8.1 29.3 168
10/10/2019 23:00 10.3 69 0.0 0 0.0 9.0 32.3 174
10/10/2019 23:10 11.1 66 0.0 0 0.0 9.1 32.7 180
10/10/2019 23:20 11.4 65 0.0 0 0.0 9.0 32.4 181
10/10/2019 23:30 11.6 65 0.0 0 0.0 8.5 30.7 181
10/10/2019 23:40 11.4 65 0.0 0 0.0 8.8 31.7 180
10/10/2019 23:50 11.9 64 0.0 0 0.0 8.3 29.7 177
Anterior Página 1 de 1 Siguiente
Los datos de precipitación registrados en estaciones que están en cumbres son inferiores a lo real, como consecuencia del efecto del viento y de la nieve.


NOTA: Tipo de datos según el color:
   - Valores diarios o 10 minutos correctos
   - Valores diarios calculados a partir de un número de datos 10 minutos menor que 144 y mayor que 120, o de un número de datos semihorarios menor que 48 y mayor que 40 (caso de las estaciones de Riegos de Navarra y del MARM)
   - Valores diez minutos estimados


Contacto        Enlaces        Aviso legal